sensor_id;sensor_type;location;lat;lon;timestamp;P1;durP1;ratioP1;P2;durP2;ratioP2
51602;SDS011;37954;51.980;5.850;2023-02-04T00:01:56;12.67;;;3.50;;
51602;SDS011;37954;51.980;5.850;2023-02-04T00:06:08;7.60;;;1.97;;
51602;SDS011;37954;51.980;5.850;2023-02-04T00:10:20;9.17;;;2.47;;
51602;SDS011;37954;51.980;5.850;2023-02-04T00:14:32;8.77;;;2.00;;
51602;SDS011;37954;51.980;5.850;2023-02-04T00:18:43;14.10;;;2.90;;
51602;SDS011;37954;51.980;5.850;2023-02-04T00:22:55;8.37;;;2.30;;
51602;SDS011;37954;51.980;5.850;2023-02-04T00:27:07;11.17;;;2.93;;
51602;SDS011;37954;51.980;5.850;2023-02-04T00:31:19;8.73;;;2.63;;
51602;SDS011;37954;51.980;5.850;2023-02-04T00:35:31;8.57;;;2.17;;
51602;SDS011;37954;51.980;5.850;2023-02-04T00:39:43;13.77;;;2.50;;
51602;SDS011;37954;51.980;5.850;2023-02-04T00:43:54;11.53;;;2.60;;
51602;SDS011;37954;51.980;5.850;2023-02-04T00:48:07;10.20;;;2.30;;
51602;SDS011;37954;51.980;5.850;2023-02-04T00:52:19;9.87;;;2.47;;
51602;SDS011;37954;51.980;5.850;2023-02-04T00:56:31;8.67;;;1.83;;
51602;SDS011;37954;51.980;5.850;2023-02-04T01:00:43;6.00;;;1.77;;
51602;SDS011;37954;51.980;5.850;2023-02-04T01:04:55;12.70;;;2.67;;
51602;SDS011;37954;51.980;5.850;2023-02-04T01:09:07;9.37;;;2.70;;
51602;SDS011;37954;51.980;5.850;2023-02-04T01:13:18;8.53;;;2.40;;
51602;SDS011;37954;51.980;5.850;2023-02-04T01:17:30;8.30;;;2.20;;
51602;SDS011;37954;51.980;5.850;2023-02-04T01:21:42;11.60;;;2.03;;
51602;SDS011;37954;51.980;5.850;2023-02-04T01:25:54;8.27;;;1.87;;
51602;SDS011;37954;51.980;5.850;2023-02-04T01:30:06;11.70;;;2.40;;
51602;SDS011;37954;51.980;5.850;2023-02-04T01:34:18;11.50;;;2.43;;
51602;SDS011;37954;51.980;5.850;2023-02-04T01:38:30;6.57;;;2.30;;
51602;SDS011;37954;51.980;5.850;2023-02-04T01:42:42;10.73;;;2.07;;
51602;SDS011;37954;51.980;5.850;2023-02-04T01:46:54;6.80;;;2.17;;
51602;SDS011;37954;51.980;5.850;2023-02-04T01:51:07;10.33;;;2.13;;
51602;SDS011;37954;51.980;5.850;2023-02-04T01:55:23;10.07;;;2.43;;
51602;SDS011;37954;51.980;5.850;2023-02-04T01:59:37;6.67;;;2.00;;
51602;SDS011;37954;51.980;5.850;2023-02-04T02:03:52;13.13;;;2.50;;
51602;SDS011;37954;51.980;5.850;2023-02-04T02:08:04;9.03;;;2.53;;
51602;SDS011;37954;51.980;5.850;2023-02-04T02:12:16;9.63;;;1.77;;
51602;SDS011;37954;51.980;5.850;2023-02-04T02:16:28;11.33;;;2.17;;
51602;SDS011;37954;51.980;5.850;2023-02-04T02:20:41;7.80;;;1.80;;
51602;SDS011;37954;51.980;5.850;2023-02-04T02:24:53;7.43;;;2.10;;
51602;SDS011;37954;51.980;5.850;2023-02-04T02:29:05;8.27;;;1.80;;
51602;SDS011;37954;51.980;5.850;2023-02-04T02:33:17;11.37;;;2.20;;
51602;SDS011;37954;51.980;5.850;2023-02-04T02:37:30;11.50;;;2.63;;
51602;SDS011;37954;51.980;5.850;2023-02-04T02:41:42;9.67;;;2.23;;
51602;SDS011;37954;51.980;5.850;2023-02-04T02:45:54;10.47;;;2.13;;
51602;SDS011;37954;51.980;5.850;2023-02-04T02:50:09;8.73;;;2.83;;
51602;SDS011;37954;51.980;5.850;2023-02-04T02:54:27;10.93;;;2.00;;
51602;SDS011;37954;51.980;5.850;2023-02-04T02:58:43;7.17;;;2.17;;
51602;SDS011;37954;51.980;5.850;2023-02-04T03:03:06;8.97;;;2.13;;
51602;SDS011;37954;51.980;5.850;2023-02-04T03:07:21;8.77;;;2.00;;
51602;SDS011;37954;51.980;5.850;2023-02-04T03:11:33;12.50;;;2.53;;
51602;SDS011;37954;51.980;5.850;2023-02-04T03:15:45;8.87;;;1.77;;
51602;SDS011;37954;51.980;5.850;2023-02-04T03:19:58;10.47;;;2.07;;
51602;SDS011;37954;51.980;5.850;2023-02-04T03:24:10;13.70;;;2.07;;
51602;SDS011;37954;51.980;5.850;2023-02-04T03:28:22;8.93;;;2.57;;
51602;SDS011;37954;51.980;5.850;2023-02-04T03:32:34;6.67;;;1.73;;
51602;SDS011;37954;51.980;5.850;2023-02-04T03:36:45;6.77;;;2.63;;
51602;SDS011;37954;51.980;5.850;2023-02-04T03:40:57;8.60;;;1.70;;
51602;SDS011;37954;51.980;5.850;2023-02-04T03:45:08;6.50;;;1.80;;
51602;SDS011;37954;51.980;5.850;2023-02-04T03:49:20;8.67;;;1.67;;
51602;SDS011;37954;51.980;5.850;2023-02-04T03:53:35;11.53;;;2.57;;
51602;SDS011;37954;51.980;5.850;2023-02-04T03:57:46;11.00;;;2.53;;
51602;SDS011;37954;51.980;5.850;2023-02-04T04:01:58;6.53;;;2.10;;
51602;SDS011;37954;51.980;5.850;2023-02-04T04:06:09;11.73;;;1.97;;
51602;SDS011;37954;51.980;5.850;2023-02-04T04:10:21;8.43;;;1.90;;
51602;SDS011;37954;51.980;5.850;2023-02-04T04:14:33;5.73;;;2.43;;
51602;SDS011;37954;51.980;5.850;2023-02-04T04:18:44;5.17;;;1.87;;
51602;SDS011;37954;51.980;5.850;2023-02-04T04:22:56;8.67;;;2.17;;
51602;SDS011;37954;51.980;5.850;2023-02-04T04:27:07;11.27;;;2.27;;
51602;SDS011;37954;51.980;5.850;2023-02-04T04:31:19;7.73;;;2.10;;
51602;SDS011;37954;51.980;5.850;2023-02-04T04:35:30;10.10;;;2.73;;
51602;SDS011;37954;51.980;5.850;2023-02-04T04:39:42;12.33;;;2.60;;
51602;SDS011;37954;51.980;5.850;2023-02-04T04:43:54;8.17;;;2.00;;
51602;SDS011;37954;51.980;5.850;2023-02-04T04:48:05;8.30;;;2.27;;
51602;SDS011;37954;51.980;5.850;2023-02-04T04:52:17;9.47;;;1.83;;
51602;SDS011;37954;51.980;5.850;2023-02-04T04:56:28;6.53;;;1.90;;
51602;SDS011;37954;51.980;5.850;2023-02-04T05:00:40;10.70;;;2.43;;
51602;SDS011;37954;51.980;5.850;2023-02-04T05:04:51;9.37;;;2.50;;
51602;SDS011;37954;51.980;5.850;2023-02-04T05:09:03;9.23;;;1.80;;
51602;SDS011;37954;51.980;5.850;2023-02-04T05:13:14;7.80;;;2.63;;
51602;SDS011;37954;51.980;5.850;2023-02-04T05:17:26;10.87;;;3.77;;
51602;SDS011;37954;51.980;5.850;2023-02-04T05:21:39;7.63;;;1.93;;
51602;SDS011;37954;51.980;5.850;2023-02-04T05:25:51;10.13;;;2.30;;
51602;SDS011;37954;51.980;5.850;2023-02-04T05:30:02;9.70;;;2.80;;
51602;SDS011;37954;51.980;5.850;2023-02-04T05:34:14;10.57;;;2.53;;
51602;SDS011;37954;51.980;5.850;2023-02-04T05:38:25;12.37;;;2.63;;
51602;SDS011;37954;51.980;5.850;2023-02-04T05:42:37;7.23;;;2.47;;
51602;SDS011;37954;51.980;5.850;2023-02-04T05:46:48;7.90;;;2.47;;
51602;SDS011;37954;51.980;5.850;2023-02-04T05:51:00;10.87;;;2.83;;
51602;SDS011;37954;51.980;5.850;2023-02-04T05:55:12;8.37;;;2.53;;
51602;SDS011;37954;51.980;5.850;2023-02-04T05:59:23;6.70;;;2.47;;
51602;SDS011;37954;51.980;5.850;2023-02-04T06:03:35;15.27;;;3.03;;
51602;SDS011;37954;51.980;5.850;2023-02-04T06:07:47;13.40;;;2.53;;
51602;SDS011;37954;51.980;5.850;2023-02-04T06:11:58;10.43;;;2.83;;
51602;SDS011;37954;51.980;5.850;2023-02-04T06:16:10;12.80;;;3.13;;
51602;SDS011;37954;51.980;5.850;2023-02-04T06:20:23;8.37;;;3.00;;
51602;SDS011;37954;51.980;5.850;2023-02-04T06:24:34;10.47;;;3.20;;
51602;SDS011;37954;51.980;5.850;2023-02-04T06:28:47;13.03;;;4.13;;
51602;SDS011;37954;51.980;5.850;2023-02-04T06:32:58;7.87;;;2.30;;
51602;SDS011;37954;51.980;5.850;2023-02-04T06:37:10;9.80;;;3.40;;
51602;SDS011;37954;51.980;5.850;2023-02-04T06:41:22;7.17;;;2.47;;
51602;SDS011;37954;51.980;5.850;2023-02-04T06:45:34;16.03;;;3.43;;
51602;SDS011;37954;51.980;5.850;2023-02-04T06:49:46;12.13;;;2.33;;
51602;SDS011;37954;51.980;5.850;2023-02-04T06:53:57;14.90;;;3.23;;
51602;SDS011;37954;51.980;5.850;2023-02-04T06:58:09;9.27;;;2.63;;
51602;SDS011;37954;51.980;5.850;2023-02-04T07:02:21;10.40;;;2.80;;
51602;SDS011;37954;51.980;5.850;2023-02-04T07:06:32;11.20;;;3.10;;
51602;SDS011;37954;51.980;5.850;2023-02-04T07:10:44;8.23;;;2.43;;
51602;SDS011;37954;51.980;5.850;2023-02-04T07:14:55;11.50;;;3.30;;
51602;SDS011;37954;51.980;5.850;2023-02-04T07:19:07;12.10;;;3.73;;
51602;SDS011;37954;51.980;5.850;2023-02-04T07:23:18;8.43;;;2.90;;
51602;SDS011;37954;51.980;5.850;2023-02-04T07:27:30;11.70;;;2.93;;
51602;SDS011;37954;51.980;5.850;2023-02-04T07:31:41;13.07;;;4.70;;
51602;SDS011;37954;51.980;5.850;2023-02-04T07:35:53;14.43;;;4.07;;
51602;SDS011;37954;51.980;5.850;2023-02-04T07:40:05;9.87;;;3.00;;
51602;SDS011;37954;51.980;5.850;2023-02-04T07:44:17;16.67;;;4.27;;
51602;SDS011;37954;51.980;5.850;2023-02-04T07:48:28;11.93;;;3.13;;
51602;SDS011;37954;51.980;5.850;2023-02-04T07:52:40;11.40;;;3.30;;
51602;SDS011;37954;51.980;5.850;2023-02-04T07:56:52;12.57;;;3.57;;
51602;SDS011;37954;51.980;5.850;2023-02-04T08:01:03;10.43;;;4.20;;
51602;SDS011;37954;51.980;5.850;2023-02-04T08:05:15;13.73;;;3.63;;
51602;SDS011;37954;51.980;5.850;2023-02-04T08:09:26;16.97;;;4.20;;
51602;SDS011;37954;51.980;5.850;2023-02-04T08:13:38;12.37;;;3.67;;
51602;SDS011;37954;51.980;5.850;2023-02-04T08:17:49;17.57;;;4.07;;
51602;SDS011;37954;51.980;5.850;2023-02-04T08:22:01;15.70;;;4.77;;
51602;SDS011;37954;51.980;5.850;2023-02-04T08:26:13;11.20;;;3.77;;
51602;SDS011;37954;51.980;5.850;2023-02-04T08:30:24;12.73;;;3.80;;
51602;SDS011;37954;51.980;5.850;2023-02-04T08:34:36;11.13;;;3.47;;
51602;SDS011;37954;51.980;5.850;2023-02-04T08:38:47;12.53;;;3.67;;
51602;SDS011;37954;51.980;5.850;2023-02-04T08:42:59;15.57;;;4.20;;
51602;SDS011;37954;51.980;5.850;2023-02-04T08:47:11;15.87;;;4.60;;
51602;SDS011;37954;51.980;5.850;2023-02-04T08:51:22;14.17;;;3.77;;
51602;SDS011;37954;51.980;5.850;2023-02-04T08:55:34;12.73;;;4.03;;
51602;SDS011;37954;51.980;5.850;2023-02-04T08:59:45;18.17;;;4.93;;
51602;SDS011;37954;51.980;5.850;2023-02-04T09:03:57;13.83;;;3.80;;
51602;SDS011;37954;51.980;5.850;2023-02-04T09:08:08;14.00;;;3.67;;
51602;SDS011;37954;51.980;5.850;2023-02-04T09:12:20;12.38;;;3.83;;
51602;SDS011;37954;51.980;5.850;2023-02-04T09:16:32;14.68;;;4.45;;
51602;SDS011;37954;51.980;5.850;2023-02-04T09:20:44;16.27;;;3.78;;
51602;SDS011;37954;51.980;5.850;2023-02-04T09:24:59;11.30;;;3.85;;
51602;SDS011;37954;51.980;5.850;2023-02-04T09:29:10;18.48;;;3.90;;
51602;SDS011;37954;51.980;5.850;2023-02-04T09:33:25;14.10;;;4.68;;
51602;SDS011;37954;51.980;5.850;2023-02-04T09:37:39;17.98;;;4.32;;
51602;SDS011;37954;51.980;5.850;2023-02-04T09:41:50;16.90;;;3.65;;
51602;SDS011;37954;51.980;5.850;2023-02-04T09:50:42;17.23;;;3.45;;
51602;SDS011;37954;51.980;5.850;2023-02-04T09:54:53;14.65;;;3.38;;
51602;SDS011;37954;51.980;5.850;2023-02-04T09:59:10;10.68;;;3.97;;
51602;SDS011;37954;51.980;5.850;2023-02-04T10:03:32;19.48;;;4.47;;
51602;SDS011;37954;51.980;5.850;2023-02-04T10:07:45;15.38;;;4.28;;
51602;SDS011;37954;51.980;5.850;2023-02-04T10:11:57;14.30;;;3.80;;
51602;SDS011;37954;51.980;5.850;2023-02-04T10:16:16;16.80;;;3.13;;
51602;SDS011;37954;51.980;5.850;2023-02-04T10:20:30;11.30;;;3.45;;
51602;SDS011;37954;51.980;5.850;2023-02-04T10:24:42;10.82;;;2.85;;
51602;SDS011;37954;51.980;5.850;2023-02-04T10:29:01;17.10;;;3.50;;
51602;SDS011;37954;51.980;5.850;2023-02-04T10:33:23;11.20;;;3.40;;
51602;SDS011;37954;51.980;5.850;2023-02-04T10:37:35;11.98;;;3.33;;
51602;SDS011;37954;51.980;5.850;2023-02-04T10:41:50;12.73;;;3.42;;
51602;SDS011;37954;51.980;5.850;2023-02-04T10:46:03;13.90;;;3.28;;
51602;SDS011;37954;51.980;5.850;2023-02-04T10:50:16;17.33;;;3.72;;
51602;SDS011;37954;51.980;5.850;2023-02-04T10:54:33;8.02;;;2.72;;
51602;SDS011;37954;51.980;5.850;2023-02-04T10:58:47;12.68;;;3.45;;
51602;SDS011;37954;51.980;5.850;2023-02-04T11:03:01;14.75;;;3.28;;
51602;SDS011;37954;51.980;5.850;2023-02-04T11:07:18;11.07;;;3.47;;
51602;SDS011;37954;51.980;5.850;2023-02-04T11:11:31;13.57;;;3.85;;
51602;SDS011;37954;51.980;5.850;2023-02-04T11:15:44;12.93;;;2.80;;
51602;SDS011;37954;51.980;5.850;2023-02-04T11:20:12;15.50;;;3.67;;
51602;SDS011;37954;51.980;5.850;2023-02-04T11:24:25;12.25;;;2.90;;
51602;SDS011;37954;51.980;5.850;2023-02-04T11:33:23;8.90;;;2.22;;
51602;SDS011;37954;51.980;5.850;2023-02-04T11:37:36;13.65;;;3.85;;
51602;SDS011;37954;51.980;5.850;2023-02-04T11:41:51;10.02;;;2.33;;
51602;SDS011;37954;51.980;5.850;2023-02-04T11:46:14;11.02;;;2.75;;
51602;SDS011;37954;51.980;5.850;2023-02-04T11:50:31;11.07;;;3.05;;
51602;SDS011;37954;51.980;5.850;2023-02-04T11:54:51;11.23;;;3.53;;
51602;SDS011;37954;51.980;5.850;2023-02-04T11:59:10;10.85;;;3.05;;
51602;SDS011;37954;51.980;5.850;2023-02-04T12:03:29;12.93;;;3.20;;
51602;SDS011;37954;51.980;5.850;2023-02-04T12:07:45;11.40;;;3.38;;
51602;SDS011;37954;51.980;5.850;2023-02-04T12:11:58;9.40;;;3.15;;
51602;SDS011;37954;51.980;5.850;2023-02-04T12:16:11;10.52;;;3.60;;
51602;SDS011;37954;51.980;5.850;2023-02-04T12:20:22;11.43;;;2.97;;
51602;SDS011;37954;51.980;5.850;2023-02-04T12:24:34;9.90;;;3.22;;
51602;SDS011;37954;51.980;5.850;2023-02-04T12:28:46;11.32;;;2.97;;
51602;SDS011;37954;51.980;5.850;2023-02-04T12:32:57;12.68;;;3.65;;
51602;SDS011;37954;51.980;5.850;2023-02-04T12:37:10;8.27;;;2.60;;
51602;SDS011;37954;51.980;5.850;2023-02-04T12:41:22;12.95;;;2.67;;
51602;SDS011;37954;51.980;5.850;2023-02-04T12:45:33;13.60;;;2.88;;
51602;SDS011;37954;51.980;5.850;2023-02-04T12:49:45;10.45;;;2.47;;
51602;SDS011;37954;51.980;5.850;2023-02-04T12:53:57;9.93;;;3.10;;
51602;SDS011;37954;51.980;5.850;2023-02-04T12:58:08;10.40;;;2.88;;
51602;SDS011;37954;51.980;5.850;2023-02-04T13:06:57;8.68;;;3.17;;
51602;SDS011;37954;51.980;5.850;2023-02-04T13:11:08;11.35;;;3.25;;
51602;SDS011;37954;51.980;5.850;2023-02-04T13:15:20;16.33;;;2.33;;
51602;SDS011;37954;51.980;5.850;2023-02-04T13:19:31;7.40;;;2.78;;
51602;SDS011;37954;51.980;5.850;2023-02-04T13:23:43;13.40;;;2.78;;
51602;SDS011;37954;51.980;5.850;2023-02-04T13:27:55;10.32;;;2.33;;
51602;SDS011;37954;51.980;5.850;2023-02-04T13:32:06;13.68;;;3.17;;
51602;SDS011;37954;51.980;5.850;2023-02-04T13:36:18;8.95;;;2.50;;
51602;SDS011;37954;51.980;5.850;2023-02-04T13:40:29;11.25;;;3.92;;
51602;SDS011;37954;51.980;5.850;2023-02-04T13:44:41;11.70;;;3.75;;
51602;SDS011;37954;51.980;5.850;2023-02-04T13:48:53;12.95;;;3.17;;
51602;SDS011;37954;51.980;5.850;2023-02-04T13:53:04;12.30;;;3.08;;
51602;SDS011;37954;51.980;5.850;2023-02-04T13:57:16;6.60;;;2.28;;
51602;SDS011;37954;51.980;5.850;2023-02-04T14:01:28;11.25;;;2.83;;
51602;SDS011;37954;51.980;5.850;2023-02-04T14:05:39;14.13;;;3.28;;
51602;SDS011;37954;51.980;5.850;2023-02-04T14:09:51;13.55;;;3.53;;
51602;SDS011;37954;51.980;5.850;2023-02-04T14:14:03;16.50;;;2.85;;
51602;SDS011;37954;51.980;5.850;2023-02-04T14:18:15;16.70;;;2.78;;
51602;SDS011;37954;51.980;5.850;2023-02-04T14:22:26;7.15;;;2.55;;
51602;SDS011;37954;51.980;5.850;2023-02-04T14:26:38;14.82;;;2.92;;
51602;SDS011;37954;51.980;5.850;2023-02-04T14:30:50;9.55;;;2.22;;
51602;SDS011;37954;51.980;5.850;2023-02-04T14:35:02;9.35;;;2.38;;
51602;SDS011;37954;51.980;5.850;2023-02-04T14:39:14;10.15;;;2.67;;
51602;SDS011;37954;51.980;5.850;2023-02-04T14:43:25;6.22;;;2.15;;
51602;SDS011;37954;51.980;5.850;2023-02-04T14:47:37;8.68;;;2.60;;
51602;SDS011;37954;51.980;5.850;2023-02-04T14:51:50;9.38;;;2.80;;
51602;SDS011;37954;51.980;5.850;2023-02-04T14:56:02;10.88;;;2.83;;
51602;SDS011;37954;51.980;5.850;2023-02-04T15:00:13;10.10;;;3.65;;
51602;SDS011;37954;51.980;5.850;2023-02-04T15:04:25;9.35;;;3.88;;
51602;SDS011;37954;51.980;5.850;2023-02-04T15:08:37;9.50;;;3.13;;
51602;SDS011;37954;51.980;5.850;2023-02-04T15:12:49;10.80;;;3.40;;
51602;SDS011;37954;51.980;5.850;2023-02-04T15:17:01;9.30;;;2.83;;
51602;SDS011;37954;51.980;5.850;2023-02-04T15:21:13;9.48;;;2.78;;
51602;SDS011;37954;51.980;5.850;2023-02-04T15:25:25;13.68;;;3.17;;
51602;SDS011;37954;51.980;5.850;2023-02-04T15:29:36;9.75;;;3.13;;
51602;SDS011;37954;51.980;5.850;2023-02-04T15:33:48;8.98;;;3.78;;
51602;SDS011;37954;51.980;5.850;2023-02-04T15:38:00;10.70;;;4.70;;
51602;SDS011;37954;51.980;5.850;2023-02-04T15:42:12;13.98;;;5.25;;
51602;SDS011;37954;51.980;5.850;2023-02-04T15:46:24;14.25;;;5.32;;
51602;SDS011;37954;51.980;5.850;2023-02-04T15:50:36;19.58;;;8.90;;
51602;SDS011;37954;51.980;5.850;2023-02-04T15:54:49;16.63;;;5.88;;
51602;SDS011;37954;51.980;5.850;2023-02-04T15:59:00;9.75;;;3.20;;
51602;SDS011;37954;51.980;5.850;2023-02-04T16:03:12;70.97;;;35.05;;
51602;SDS011;37954;51.980;5.850;2023-02-04T16:07:24;20.05;;;9.57;;
51602;SDS011;37954;51.980;5.850;2023-02-04T16:11:36;22.85;;;10.80;;
51602;SDS011;37954;51.980;5.850;2023-02-04T16:15:48;26.50;;;11.15;;
51602;SDS011;37954;51.980;5.850;2023-02-04T16:20:00;18.30;;;10.05;;
51602;SDS011;37954;51.980;5.850;2023-02-04T16:24:14;22.05;;;8.50;;
51602;SDS011;37954;51.980;5.850;2023-02-04T16:28:46;12.63;;;6.53;;
51602;SDS011;37954;51.980;5.850;2023-02-04T16:32:58;14.77;;;5.82;;
51602;SDS011;37954;51.980;5.850;2023-02-04T16:37:10;17.13;;;6.18;;
51602;SDS011;37954;51.980;5.850;2023-02-04T16:41:21;13.68;;;7.00;;
51602;SDS011;37954;51.980;5.850;2023-02-04T16:45:33;20.63;;;8.43;;
51602;SDS011;37954;51.980;5.850;2023-02-04T16:49:45;18.88;;;8.25;;
51602;SDS011;37954;51.980;5.850;2023-02-04T16:53:58;20.77;;;8.23;;
51602;SDS011;37954;51.980;5.850;2023-02-04T16:58:10;20.08;;;8.40;;
51602;SDS011;37954;51.980;5.850;2023-02-04T17:02:22;19.42;;;9.57;;
51602;SDS011;37954;51.980;5.850;2023-02-04T17:06:34;20.92;;;9.20;;
51602;SDS011;37954;51.980;5.850;2023-02-04T17:10:46;18.38;;;9.45;;
51602;SDS011;37954;51.980;5.850;2023-02-04T17:15:16;24.45;;;12.73;;
51602;SDS011;37954;51.980;5.850;2023-02-04T17:19:27;20.58;;;12.18;;
51602;SDS011;37954;51.980;5.850;2023-02-04T17:23:39;28.70;;;12.82;;
51602;SDS011;37954;51.980;5.850;2023-02-04T17:27:51;24.60;;;11.88;;
51602;SDS011;37954;51.980;5.850;2023-02-04T17:36:40;28.75;;;13.02;;
51602;SDS011;37954;51.980;5.850;2023-02-04T17:40:51;26.05;;;13.93;;
51602;SDS011;37954;51.980;5.850;2023-02-04T17:45:05;48.05;;;24.17;;
51602;SDS011;37954;51.980;5.850;2023-02-04T17:49:20;40.63;;;20.98;;
51602;SDS011;37954;51.980;5.850;2023-02-04T17:53:33;42.78;;;20.95;;
51602;SDS011;37954;51.980;5.850;2023-02-04T17:57:49;39.58;;;20.40;;
51602;SDS011;37954;51.980;5.850;2023-02-04T18:02:04;45.22;;;22.48;;
51602;SDS011;37954;51.980;5.850;2023-02-04T18:06:32;27.02;;;12.93;;
51602;SDS011;37954;51.980;5.850;2023-02-04T18:10:47;19.48;;;7.80;;
51602;SDS011;37954;51.980;5.850;2023-02-04T18:15:01;14.63;;;5.30;;
51602;SDS011;37954;51.980;5.850;2023-02-04T18:19:17;14.93;;;4.90;;
51602;SDS011;37954;51.980;5.850;2023-02-04T18:23:31;12.55;;;4.22;;
51602;SDS011;37954;51.980;5.850;2023-02-04T18:27:43;14.88;;;6.00;;
51602;SDS011;37954;51.980;5.850;2023-02-04T18:31:57;14.60;;;5.75;;
51602;SDS011;37954;51.980;5.850;2023-02-04T18:36:14;36.88;;;15.30;;
51602;SDS011;37954;51.980;5.850;2023-02-04T18:40:30;27.90;;;11.40;;
51602;SDS011;37954;51.980;5.850;2023-02-04T18:44:44;16.98;;;7.07;;
51602;SDS011;37954;51.980;5.850;2023-02-04T18:49:08;17.77;;;6.35;;
51602;SDS011;37954;51.980;5.850;2023-02-04T18:53:33;14.95;;;6.40;;
51602;SDS011;37954;51.980;5.850;2023-02-04T18:57:45;18.65;;;8.75;;
51602;SDS011;37954;51.980;5.850;2023-02-04T19:01:57;22.63;;;10.30;;
51602;SDS011;37954;51.980;5.850;2023-02-04T19:10:38;15.90;;;7.50;;
51602;SDS011;37954;51.980;5.850;2023-02-04T19:14:51;32.77;;;13.03;;
51602;SDS011;37954;51.980;5.850;2023-02-04T19:23:57;29.88;;;10.18;;
51602;SDS011;37954;51.980;5.850;2023-02-04T19:28:27;68.90;;;31.53;;
51602;SDS011;37954;51.980;5.850;2023-02-04T19:32:44;48.10;;;20.97;;
51602;SDS011;37954;51.980;5.850;2023-02-04T19:36:56;22.57;;;9.73;;
51602;SDS011;37954;51.980;5.850;2023-02-04T19:45:54;23.20;;;9.47;;
51602;SDS011;37954;51.980;5.850;2023-02-04T19:54:40;22.93;;;10.80;;
51602;SDS011;37954;51.980;5.850;2023-02-04T19:58:53;20.47;;;11.33;;
51602;SDS011;37954;51.980;5.850;2023-02-04T20:03:20;21.33;;;11.07;;
51602;SDS011;37954;51.980;5.850;2023-02-04T20:07:52;22.50;;;9.63;;
51602;SDS011;37954;51.980;5.850;2023-02-04T20:12:07;24.95;;;12.60;;
51602;SDS011;37954;51.980;5.850;2023-02-04T20:16:36;21.90;;;10.60;;
51602;SDS011;37954;51.980;5.850;2023-02-04T20:20:49;20.03;;;9.67;;
51602;SDS011;37954;51.980;5.850;2023-02-04T20:25:21;39.87;;;19.50;;
51602;SDS011;37954;51.980;5.850;2023-02-04T20:29:48;20.97;;;11.10;;
51602;SDS011;37954;51.980;5.850;2023-02-04T20:34:31;17.57;;;8.47;;
51602;SDS011;37954;51.980;5.850;2023-02-04T20:38:45;15.70;;;6.53;;
51602;SDS011;37954;51.980;5.850;2023-02-04T20:43:01;21.97;;;8.80;;
51602;SDS011;37954;51.980;5.850;2023-02-04T20:47:27;16.67;;;6.90;;
51602;SDS011;37954;51.980;5.850;2023-02-04T20:51:40;24.10;;;8.53;;
51602;SDS011;37954;51.980;5.850;2023-02-04T20:55:56;17.87;;;7.73;;
51602;SDS011;37954;51.980;5.850;2023-02-04T21:00:26;14.67;;;7.27;;
51602;SDS011;37954;51.980;5.850;2023-02-04T21:04:42;15.30;;;7.13;;
51602;SDS011;37954;51.980;5.850;2023-02-04T21:09:02;21.30;;;8.20;;
51602;SDS011;37954;51.980;5.850;2023-02-04T21:13:20;19.37;;;9.23;;
51602;SDS011;37954;51.980;5.850;2023-02-04T21:17:33;20.60;;;8.27;;
51602;SDS011;37954;51.980;5.850;2023-02-04T21:21:44;17.83;;;8.53;;
51602;SDS011;37954;51.980;5.850;2023-02-04T21:25:56;14.73;;;8.70;;
51602;SDS011;37954;51.980;5.850;2023-02-04T21:30:08;13.63;;;6.93;;
51602;SDS011;37954;51.980;5.850;2023-02-04T21:34:20;14.47;;;6.80;;
51602;SDS011;37954;51.980;5.850;2023-02-04T21:38:31;15.90;;;7.53;;
51602;SDS011;37954;51.980;5.850;2023-02-04T21:42:43;14.10;;;6.80;;
51602;SDS011;37954;51.980;5.850;2023-02-04T21:46:55;23.10;;;8.17;;
51602;SDS011;37954;51.980;5.850;2023-02-04T21:51:06;17.43;;;8.70;;
51602;SDS011;37954;51.980;5.850;2023-02-04T21:55:19;22.40;;;9.83;;
51602;SDS011;37954;51.980;5.850;2023-02-04T21:59:33;15.13;;;7.37;;
51602;SDS011;37954;51.980;5.850;2023-02-04T22:03:45;15.13;;;5.97;;
51602;SDS011;37954;51.980;5.850;2023-02-04T22:07:57;15.67;;;6.03;;
51602;SDS011;37954;51.980;5.850;2023-02-04T22:12:10;20.90;;;7.80;;
51602;SDS011;37954;51.980;5.850;2023-02-04T22:16:21;14.40;;;5.83;;
51602;SDS011;37954;51.980;5.850;2023-02-04T22:20:33;16.03;;;6.90;;
51602;SDS011;37954;51.980;5.850;2023-02-04T22:24:45;12.40;;;5.87;;
51602;SDS011;37954;51.980;5.850;2023-02-04T22:28:57;11.73;;;5.97;;
51602;SDS011;37954;51.980;5.850;2023-02-04T22:33:09;12.93;;;5.50;;
51602;SDS011;37954;51.980;5.850;2023-02-04T22:37:22;14.97;;;6.60;;
51602;SDS011;37954;51.980;5.850;2023-02-04T22:41:34;14.03;;;5.87;;
51602;SDS011;37954;51.980;5.850;2023-02-04T22:45:45;14.00;;;6.37;;
51602;SDS011;37954;51.980;5.850;2023-02-04T22:49:57;16.37;;;5.93;;
51602;SDS011;37954;51.980;5.850;2023-02-04T22:54:08;12.87;;;6.87;;
51602;SDS011;37954;51.980;5.850;2023-02-04T22:58:20;16.07;;;6.73;;
51602;SDS011;37954;51.980;5.850;2023-02-04T23:02:32;13.40;;;6.57;;
51602;SDS011;37954;51.980;5.850;2023-02-04T23:06:43;17.23;;;6.57;;
51602;SDS011;37954;51.980;5.850;2023-02-04T23:10:55;14.27;;;6.43;;
51602;SDS011;37954;51.980;5.850;2023-02-04T23:15:09;15.30;;;7.00;;
51602;SDS011;37954;51.980;5.850;2023-02-04T23:19:22;15.27;;;7.17;;
51602;SDS011;37954;51.980;5.850;2023-02-04T23:23:33;13.73;;;7.10;;
51602;SDS011;37954;51.980;5.850;2023-02-04T23:27:45;14.00;;;6.53;;
51602;SDS011;37954;51.980;5.850;2023-02-04T23:31:57;13.23;;;6.37;;
51602;SDS011;37954;51.980;5.850;2023-02-04T23:36:09;20.37;;;6.03;;
51602;SDS011;37954;51.980;5.850;2023-02-04T23:40:21;13.33;;;6.27;;
51602;SDS011;37954;51.980;5.850;2023-02-04T23:44:33;10.20;;;6.20;;
51602;SDS011;37954;51.980;5.850;2023-02-04T23:48:44;17.13;;;6.60;;
51602;SDS011;37954;51.980;5.850;2023-02-04T23:52:56;20.13;;;8.10;;
51602;SDS011;37954;51.980;5.850;2023-02-04T23:57:08;13.03;;;7.53;;
